Portada
Imágenes satélite Pronóstico 15 díasClimaPredicción Marítima Ciclones Rayo AeropuertosFAQ Noticias Acerca
El tiempo : Europa África América del Norte América del Sur Asia Australia-Oceanía Otros
Idiomas Contacto

Nueva York / LaGuardia, Nueva York, Estados Unidos

La Guardia Airport

latitud: 40-46-45N, longitud: 073-52-48W, altitud: 6 m


METAR: KLGA 310251Z 21008KT 10SM SCT260 23/14 A3004 RMK AO2 SLP171 T02280139 50007
short-TAF: falta
long-TAF: KLGA 310230Z 3103/3124 22006KT P6SM SCT250 FM311800 20011G19KT P6SM SCT050 BKN250

Hora: 23:20 (03:20 UTC)

Observación

El informe se hizo hace 29 minutos, a las 02:51 UTC  
Viento 08 kt del sur-suroeste
Temperatura 23°C
Humedad 57%
Presión 1017 hPa
Visibilidad 16.1 km
Nubes dispersas a una altura de 26000 ft

Cambiar las unidades

Pronóstico

El informe se hizo hace 44 minutos, a las 02:36 UTC  
Pronóstico válido del 31 a las 03 UTC al 31 a las 24 UTC
Viento 06 kt del suroeste
Visibilidad 10 km
Nubes dispersas a una altura de 25000 ft
A partir de las 31 a las 1800 UTC
Viento 11 kt del sur-suroeste con ráfagas de 19 kt
Visibilidad 10 km
Nubes dispersas a una altura de 5000 ft
Cielo nuboso a una altura de 25000 ft
La información que se ofrece en estas páginas está sujeta a una cláusula de exención de responsabilidad
El tiempo : Europa África América del Norte América del Sur Asia Australia-Oceanía Otros
Imágenes satélite Pronóstico 15 díasClimaPredicción Marítima Ciclones Rayo AeropuertosFAQ Idiomas Contacto Noticias Acerca